This is the latest recevied weather packets stored in our database for station/object KR0L-13. If no packets are shown the sender has not sent any weather packets the latest 1 day(s).
| Time | Temp. | Humidity | Pressure | Rain* | Wind** | Luminosity | Snow |
|---|---|---|---|---|---|---|---|
| 1778037021 | 9.44° C | 70% | 1014.6 hPa | 0 mm | 2.68 m/s, 338° | - | - |
| 1778036421 | 9.44° C | 71% | 1014.6 hPa | 0 mm | 2.68 m/s, 315° | - | - |
| 1778035821 | 9.44° C | 72% | 1014.4 hPa | 0 mm | 2.68 m/s, 315° | - | - |
| 1778035221 | 9.44° C | 71% | 1014.2 hPa | 0 mm | 4.02 m/s, 315° | - | - |
| 1778034621 | 9.44° C | 74% | 1014 hPa | 0 mm | 2.68 m/s, 270° | - | - |
| 1778034021 | 9.44° C | 81% | 1013.8 hPa | 0 mm | 0.45 m/s, 270° | - | - |
| 1778033421 | 9.44° C | 82% | 1013.8 hPa | 0 mm | 0 m/s | - | - |
| 1778032821 | 9.44° C | 82% | 1013.5 hPa | 0 mm | 0 m/s | - | - |
| 1778032221 | 9.44° C | 82% | 1013.3 hPa | 0 mm | 0 m/s | - | - |
| 1778031621 | 9.44° C | 81% | 1013 hPa | 0 mm | 0 m/s | - | - |
| 1778031021 | 9.44° C | 80% | 1012.7 hPa | 0 mm | 0.45 m/s, 315° | - | - |
| 1778030421 | 9.44° C | 78% | 1012.4 hPa | 0 mm | 0.89 m/s, 293° | - | - |
| 1778029821 | 10° C | 78% | 1012.5 hPa | 0 mm | 1.34 m/s, 270° | - | - |
| 1778029221 | 10° C | 76% | 1012.3 hPa | 0 mm | 1.79 m/s, 293° | - | - |
| 1778028621 | 10° C | 73% | 1012 hPa | 0 mm | 2.68 m/s, 315° | - | - |
| 1778028021 | 10.56° C | 71% | 1011.9 hPa | 0 mm | 2.24 m/s, 315° | - | - |
| 1778027421 | 10.56° C | 71% | 1012.1 hPa | 0 mm | 2.24 m/s, 315° | - | - |
| 1778026821 | 10.56° C | 69% | 1011.9 hPa | 0 mm | 2.68 m/s, 315° | - | - |
| 1778026221 | 11.11° C | 68% | 1011.7 hPa | 0 mm | 3.13 m/s, 338° | - | - |
| 1778025621 | 11.11° C | 67% | 1011.7 hPa | 0 mm | 3.13 m/s, 315° | - | - |
| 1778025021 | 11.11° C | 67% | 1011.7 hPa | 0 mm | 2.68 m/s, 315° | - | - |
| 1778024421 | 11.11° C | 65% | 1011.7 hPa | 0 mm | 3.58 m/s, 315° | - | - |
| 1778023821 | 11.67° C | 64% | 1011.6 hPa | 0 mm | 4.02 m/s, 338° | - | - |
| 1778023221 | 11.67° C | 63% | 1011.5 hPa | 0 mm | 4.02 m/s, 338° | - | - |
| 1778022621 | 11.11° C | 62% | 1011.4 hPa | 0 mm | 4.02 m/s, 338° | - | - |
* Rain latest hour (hover to see other rain measurements)
** Current wind speed in m/s (hover to see current wind gust speed)